Time;durP1;ratioP1;P1;durP2;ratioP2;P2;SDS_P1;SDS_P2;PMS_P1;PMS_P2;Temp;Humidity;BMP_temperature;BMP_pressure;BME280_temperature;BME280_humidity;BME280_pressure;Samples;Min_cycle;Max_cycle;Signal;HPM_P1;HPM_P2
2023/04/07 00:00:54;;;;;;;19.30;11.65;;;8.60;99.90;;;;;;5005382;28;20132;-89
2023/04/07 00:03:20;;;;;;;18.70;12.68;;;8.60;99.90;;;;;;4958549;28;20123;-89
2023/04/07 00:05:46;;;;;;;20.17;11.95;;;8.60;99.90;;;;;;4990176;28;20682;-89
2023/04/07 00:08:12;;;;;;;19.48;12.60;;;8.60;99.90;;;;;;4974705;28;20042;-89
2023/04/07 00:10:38;;;;;;;20.02;12.50;;;8.60;99.90;;;;;;4992705;28;20144;-89
2023/04/07 00:13:03;;;;;;;20.10;12.80;;;8.60;99.90;;;;;;4976300;28;20052;-89
2023/04/07 00:15:29;;;;;;;18.88;12.52;;;8.60;99.90;;;;;;4985880;28;20403;-89
2023/04/07 00:17:55;;;;;;;18.50;12.68;;;8.50;99.90;;;;;;4973959;28;20156;-89
2023/04/07 00:20:21;;;;;;;16.88;12.13;;;8.60;99.90;;;;;;4985564;28;20045;-89
2023/04/07 00:22:46;;;;;;;19.98;12.75;;;8.50;99.90;;;;;;4993756;28;20048;-89
2023/04/07 00:25:12;;;;;;;22.13;13.18;;;8.50;99.90;;;;;;4992846;28;20037;-89
2023/04/07 00:27:38;;;;;;;19.45;13.07;;;8.50;99.90;;;;;;5010479;28;20396;-88
2023/04/07 00:30:04;;;;;;;20.00;12.90;;;8.50;99.90;;;;;;5010491;28;20130;-88
2023/04/07 00:32:30;;;;;;;20.83;13.15;;;8.50;99.90;;;;;;4992326;28;20095;-88
2023/04/07 00:34:56;;;;;;;19.15;12.05;;;8.50;99.90;;;;;;4992992;28;20034;-89
2023/04/07 00:37:21;;;;;;;18.27;12.43;;;8.50;99.90;;;;;;4976758;28;20045;-88
2023/04/07 00:39:47;;;;;;;17.58;12.02;;;8.50;99.90;;;;;;4993192;28;20041;-88
2023/04/07 00:42:13;;;;;;;16.52;11.27;;;8.50;99.90;;;;;;4977777;28;20045;-88
2023/04/07 00:44:38;;;;;;;18.80;12.75;;;8.50;99.90;;;;;;4970339;28;20046;-89
2023/04/07 00:47:04;;;;;;;17.83;11.75;;;8.50;99.90;;;;;;4973935;28;20093;-87
2023/04/07 00:49:30;;;;;;;19.25;12.50;;;8.50;99.90;;;;;;5007153;28;20129;-89
2023/04/07 00:51:57;;;;;;;20.42;12.95;;;8.50;99.90;;;;;;4970807;28;20072;-89
2023/04/07 00:54:23;;;;;;;18.20;11.93;;;8.50;99.90;;;;;;4965739;28;20034;-89
2023/04/07 00:56:49;;;;;;;17.10;12.02;;;8.50;99.90;;;;;;4974497;28;20049;-89
2023/04/07 00:59:15;;;;;;;20.13;13.57;;;8.50;99.90;;;;;;4996395;28;20045;-89
2023/04/07 01:02:09;;;;;;;20.83;13.57;;;8.50;99.90;;;;;;4976451;28;20034;-89
2023/04/07 01:04:47;;;;;;;18.83;13.20;;;8.50;99.90;;;;;;4977512;28;20037;-89
2023/04/07 01:07:27;;;;;;;18.17;12.40;;;8.50;99.90;;;;;;4969645;28;20045;-89
2023/04/07 01:10:04;;;;;;;21.35;14.38;;;8.50;99.90;;;;;;4976192;28;20038;-88
2023/04/07 01:12:43;;;;;;;18.67;12.40;;;8.50;99.90;;;;;;5009238;28;20042;-89
2023/04/07 01:15:11;;;;;;;22.15;12.85;;;8.50;99.90;;;;;;4992977;28;20506;-89
2023/04/07 01:17:41;;;;;;;19.42;13.43;;;8.50;99.90;;;;;;4992138;28;20046;-89
2023/04/07 01:20:11;;;;;;;19.50;13.05;;;8.50;99.90;;;;;;5009595;28;20041;-89
2023/04/07 01:22:52;;;;;;;19.27;12.65;;;8.50;99.90;;;;;;4977191;28;20073;-88
2023/04/07 01:25:37;;;;;;;18.10;12.07;;;8.50;99.90;;;;;;4991670;28;20042;-88
2023/04/07 01:28:39;;;;;;;17.90;12.07;;;8.50;99.90;;;;;;4976937;28;20048;-88
2023/04/07 01:31:07;;;;;;;20.67;13.98;;;8.50;99.90;;;;;;4976084;28;20040;-88
2023/04/07 01:33:34;;;;;;;20.73;14.20;;;8.50;99.90;;;;;;4979863;28;20042;-89
2023/04/07 01:36:01;;;;;;;20.08;12.60;;;8.50;99.90;;;;;;4980101;28;20081;-88
2023/04/07 01:38:28;;;;;;;21.60;14.20;;;8.50;99.90;;;;;;4988617;28;20042;-88
2023/04/07 01:40:55;;;;;;;21.52;14.38;;;8.50;99.90;;;;;;4992405;28;20042;-88
2023/04/07 01:43:23;;;;;;;22.38;15.18;;;8.50;99.90;;;;;;4976713;28;20404;-88
2023/04/07 01:45:50;;;;;;;20.23;13.77;;;8.50;99.90;;;;;;4980378;28;20411;-88
2023/04/07 01:48:16;;;;;;;22.13;15.25;;;8.50;99.90;;;;;;4995375;28;20060;-88
2023/04/07 01:50:44;;;;;;;22.25;13.77;;;8.50;99.90;;;;;;4992039;28;20042;-88
2023/04/07 01:53:10;;;;;;;20.50;13.57;;;8.50;99.90;;;;;;5013930;28;20087;-88
2023/04/07 01:55:37;;;;;;;19.98;13.70;;;8.50;99.90;;;;;;4995481;28;20069;-88
2023/04/07 01:58:06;;;;;;;19.80;14.18;;;8.50;99.90;;;;;;4976686;28;20514;-88
2023/04/07 02:00:33;;;;;;;20.35;13.55;;;8.50;99.90;;;;;;4982604;28;20179;-88
2023/04/07 02:03:08;;;;;;;19.25;13.60;;;8.50;99.90;;;;;;4996095;28;20041;-88
2023/04/07 02:05:35;;;;;;;21.08;14.30;;;8.50;99.90;;;;;;4979623;28;20088;-88
2023/04/07 02:08:04;;;;;;;17.83;12.25;;;8.50;99.90;;;;;;4964199;28;20077;-88
2023/04/07 02:10:35;;;;;;;22.33;14.35;;;8.50;99.90;;;;;;4976261;28;20048;-87
2023/04/07 02:13:03;;;;;;;21.83;13.98;;;8.50;99.90;;;;;;4979288;28;20042;-88
2023/04/07 02:15:31;;;;;;;19.88;14.25;;;8.50;99.90;;;;;;4995994;28;20041;-88
2023/04/07 02:17:59;;;;;;;20.85;15.07;;;8.50;99.90;;;;;;4973963;28;20038;-88
2023/04/07 02:20:26;;;;;;;21.75;14.38;;;8.50;99.90;;;;;;5009355;28;20042;-88
2023/04/07 02:22:53;;;;;;;20.42;13.73;;;8.50;99.90;;;;;;4996273;28;20046;-87
2023/04/07 02:25:27;;;;;;;20.30;12.85;;;8.50;99.90;;;;;;5008479;28;20455;-89
2023/04/07 02:27:54;;;;;;;19.30;12.75;;;8.50;99.90;;;;;;4993603;28;20389;-89
2023/04/07 02:30:20;;;;;;;20.35;13.23;;;8.50;99.90;;;;;;5008203;28;20108;-88
2023/04/07 02:32:46;;;;;;;20.65;13.60;;;8.50;99.90;;;;;;5008162;28;20615;-89
2023/04/07 02:35:11;;;;;;;21.55;15.38;;;8.50;99.90;;;;;;4978652;28;20042;-88
2023/04/07 02:37:38;;;;;;;20.73;14.00;;;8.50;99.90;;;;;;5011705;28;20038;-88
2023/04/07 02:40:04;;;;;;;17.83;12.00;;;8.50;99.90;;;;;;5012689;28;20129;-89
2023/04/07 02:42:30;;;;;;;19.77;13.57;;;8.50;99.90;;;;;;5011111;28;20081;-89
2023/04/07 02:44:56;;;;;;;19.42;12.93;;;8.50;99.90;;;;;;4994181;28;20080;-88
2023/04/07 02:47:22;;;;;;;20.23;13.05;;;8.50;99.90;;;;;;5012379;28;20038;-88
2023/04/07 02:49:47;;;;;;;19.60;12.80;;;8.50;99.90;;;;;;4990973;28;20065;-91
2023/04/07 02:52:13;;;;;;;18.67;12.00;;;8.50;99.90;;;;;;4975821;28;20046;-90
2023/04/07 02:54:39;;;;;;;20.52;14.10;;;8.50;99.90;;;;;;4976153;28;20411;-90
2023/04/07 02:57:04;;;;;;;18.60;12.90;;;8.50;99.90;;;;;;5007386;28;20064;-90
2023/04/07 02:59:30;;;;;;;18.25;13.13;;;8.50;99.90;;;;;;4975163;28;20469;-91
2023/04/07 03:01:56;;;;;;;20.08;13.25;;;8.50;99.90;;;;;;4993836;28;20045;-90
2023/04/07 03:04:22;;;;;;;19.33;12.77;;;8.50;99.90;;;;;;4965123;28;20050;-91
2023/04/07 03:06:48;;;;;;;17.98;11.52;;;8.50;99.90;;;;;;4993103;28;20109;-91
2023/04/07 03:09:14;;;;;;;19.20;11.73;;;8.50;99.90;;;;;;5007119;28;20121;-91
2023/04/07 03:11:40;;;;;;;17.95;13.23;;;8.50;99.90;;;;;;4958994;28;20125;-91
2023/04/07 03:14:06;;;;;;;19.15;13.18;;;8.50;99.90;;;;;;4994860;28;20034;-91
2023/04/07 03:16:32;;;;;;;19.08;12.77;;;8.50;99.90;;;;;;4980276;28;20045;-90
2023/04/07 03:18:57;;;;;;;19.60;12.63;;;8.50;99.90;;;;;;4991906;28;20078;-90
2023/04/07 03:21:23;;;;;;;17.92;12.38;;;8.50;99.90;;;;;;4986278;28;20069;-91
2023/04/07 03:23:49;;;;;;;21.08;13.68;;;8.50;99.90;;;;;;4955537;28;20726;-90
2023/04/07 03:26:15;;;;;;;19.92;13.68;;;8.50;99.90;;;;;;4978645;28;20598;-90
2023/04/07 03:28:40;;;;;;;18.50;12.02;;;8.50;99.90;;;;;;4977591;28;20042;-90
2023/04/07 03:31:06;;;;;;;17.17;11.63;;;8.50;99.90;;;;;;4991453;28;20121;-90
2023/04/07 03:33:32;;;;;;;17.80;12.20;;;8.50;99.90;;;;;;4976461;28;20038;-90
2023/04/07 03:35:58;;;;;;;19.92;12.20;;;8.50;99.90;;;;;;4978190;28;20042;-91
2023/04/07 03:38:25;;;;;;;17.15;12.57;;;8.50;99.90;;;;;;4977836;28;20044;-90
2023/04/07 03:40:50;;;;;;;19.92;13.02;;;8.50;99.90;;;;;;4987539;28;20053;-90
2023/04/07 03:43:16;;;;;;;20.80;13.52;;;8.50;99.90;;;;;;4984462;28;20038;-90
2023/04/07 03:45:42;;;;;;;16.95;10.75;;;8.50;99.90;;;;;;4993362;28;20072;-90
2023/04/07 03:48:11;;;;;;;20.58;12.40;;;8.40;99.90;;;;;;4993026;28;20392;-90
2023/04/07 03:50:37;;;;;;;19.85;12.25;;;8.40;99.90;;;;;;4976844;28;20124;-90
2023/04/07 03:53:03;;;;;;;17.92;11.65;;;8.40;99.90;;;;;;5011216;28;20045;-90
2023/04/07 03:55:29;;;;;;;17.80;11.13;;;8.50;99.90;;;;;;4993810;28;20079;-90
2023/04/07 03:57:55;;;;;;;18.23;11.63;;;8.40;99.90;;;;;;4992820;28;20092;-91
2023/04/07 04:00:21;;;;;;;16.70;10.55;;;8.40;99.90;;;;;;4974165;28;20038;-90
2023/04/07 04:02:47;;;;;;;18.67;11.77;;;8.40;99.90;;;;;;4991823;28;20043;-90
2023/04/07 04:05:12;;;;;;;18.35;11.43;;;8.40;99.90;;;;;;4977499;28;20048;-90
2023/04/07 04:07:38;;;;;;;19.05;11.45;;;8.40;99.90;;;;;;5011686;28;20042;-91
2023/04/07 04:10:04;;;;;;;18.30;11.70;;;8.40;99.90;;;;;;5010769;28;20042;-91
2023/04/07 04:12:30;;;;;;;17.58;11.20;;;8.40;99.90;;;;;;5006953;28;20049;-90
2023/04/07 04:14:56;;;;;;;19.00;12.73;;;8.40;99.90;;;;;;5010466;28;20042;-91
2023/04/07 04:17:22;;;;;;;19.48;12.88;;;8.40;99.90;;;;;;4977389;28;20457;-90
2023/04/07 04:19:47;;;;;;;19.80;12.90;;;8.40;99.90;;;;;;4993726;28;20037;-90
2023/04/07 04:22:13;;;;;;;17.25;11.18;;;8.40;99.90;;;;;;4976948;28;20033;-90
2023/04/07 04:24:40;;;;;;;18.80;10.88;;;8.40;99.90;;;;;;4978239;28;20037;-91
2023/04/07 04:27:06;;;;;;;20.05;12.57;;;8.40;99.90;;;;;;4977098;28;20487;-90
2023/04/07 04:29:32;;;;;;;18.83;11.63;;;8.40;99.90;;;;;;4980062;28;20126;-90
2023/04/07 04:31:58;;;;;;;18.00;11.20;;;8.40;99.90;;;;;;4977515;28;20042;-91
2023/04/07 04:34:23;;;;;;;19.45;11.40;;;8.40;99.90;;;;;;4976252;28;20060;-90
2023/04/07 04:36:49;;;;;;;19.52;12.75;;;8.40;99.90;;;;;;4993512;28;20038;-90
2023/04/07 04:39:15;;;;;;;18.45;11.57;;;8.40;99.90;;;;;;5010098;28;20057;-90
2023/04/07 04:41:41;;;;;;;16.23;10.93;;;8.40;99.90;;;;;;4976466;28;20038;-90
2023/04/07 04:44:06;;;;;;;15.93;10.68;;;8.40;99.90;;;;;;4976522;28;20096;-90
2023/04/07 04:46:32;;;;;;;18.88;12.27;;;8.40;99.90;;;;;;4976058;28;20121;-90
2023/04/07 04:48:58;;;;;;;19.95;12.07;;;8.40;99.90;;;;;;4975981;28;20046;-90
2023/04/07 04:51:24;;;;;;;20.85;11.88;;;8.40;99.90;;;;;;4975690;28;20121;-91
2023/04/07 04:53:50;;;;;;;17.95;12.02;;;8.40;99.90;;;;;;4993012;28;20037;-91
2023/04/07 04:56:16;;;;;;;18.73;13.35;;;8.40;99.90;;;;;;5010623;28;20088;-90
2023/04/07 04:58:45;;;;;;;20.90;13.65;;;8.40;99.90;;;;;;5009729;28;20089;-91
2023/04/07 05:01:11;;;;;;;18.67;12.52;;;8.40;99.90;;;;;;4993069;28;20073;-91
2023/04/07 05:03:37;;;;;;;20.00;13.98;;;8.40;99.90;;;;;;4992534;28;20070;-91
2023/04/07 05:06:02;;;;;;;19.75;12.57;;;8.30;99.90;;;;;;4966694;28;20069;-91
2023/04/07 05:08:28;;;;;;;17.95;11.65;;;8.40;99.90;;;;;;4977407;28;20120;-90
2023/04/07 05:10:54;;;;;;;17.95;11.18;;;8.40;99.90;;;;;;4979978;28;20061;-91
2023/04/07 05:13:20;;;;;;;20.98;13.57;;;8.30;99.90;;;;;;5013202;28;20173;-91
2023/04/07 05:15:46;;;;;;;17.98;11.95;;;8.40;99.90;;;;;;4994062;28;20775;-91
2023/04/07 05:18:12;;;;;;;19.15;11.85;;;8.40;99.90;;;;;;4979162;28;20127;-90
2023/04/07 05:20:38;;;;;;;19.48;12.15;;;8.40;99.90;;;;;;4979571;28;20044;-90
2023/04/07 05:23:03;;;;;;;22.27;12.52;;;8.30;99.90;;;;;;4994917;28;20045;-90
2023/04/07 05:25:29;;;;;;;16.67;10.88;;;8.30;99.90;;;;;;5012338;28;20089;-90
2023/04/07 05:27:56;;;;;;;17.83;11.88;;;8.40;99.90;;;;;;4978706;28;20056;-90
2023/04/07 05:30:22;;;;;;;19.75;11.77;;;8.40;99.90;;;;;;4960276;28;20042;-91
2023/04/07 05:32:47;;;;;;;19.65;12.43;;;8.40;99.90;;;;;;4978077;28;20043;-90
2023/04/07 05:35:14;;;;;;;18.20;12.13;;;8.40;99.90;;;;;;4981264;28;20121;-90
2023/04/07 05:37:40;;;;;;;18.83;12.13;;;8.40;99.90;;;;;;5013574;28;20120;-90
2023/04/07 05:40:06;;;;;;;17.65;11.07;;;8.30;99.90;;;;;;5012221;28;20056;-91
2023/04/07 05:42:32;;;;;;;18.42;12.23;;;8.40;99.90;;;;;;4979568;28;20038;-92
2023/04/07 05:44:58;;;;;;;19.10;11.95;;;8.40;99.90;;;;;;4996249;28;20076;-91
2023/04/07 05:47:23;;;;;;;19.75;12.27;;;8.40;99.90;;;;;;4995186;28;20038;-90
2023/04/07 05:49:49;;;;;;;19.15;11.73;;;8.40;99.90;;;;;;4995962;28;20042;-91
2023/04/07 05:52:15;;;;;;;18.27;11.13;;;8.40;99.90;;;;;;5012913;28;20036;-89
2023/04/07 05:54:41;;;;;;;18.35;12.13;;;8.40;99.90;;;;;;4996878;28;20114;-88
2023/04/07 05:57:06;;;;;;;20.30;12.38;;;8.40;99.90;;;;;;4993982;28;20036;-90
2023/04/07 05:59:33;;;;;;;17.90;11.80;;;8.40;99.90;;;;;;5000431;28;20121;-90
2023/04/07 06:01:59;;;;;;;21.75;12.35;;;8.40;99.90;;;;;;4979575;28;20061;-90
2023/04/07 06:04:25;;;;;;;16.75;10.50;;;8.50;99.90;;;;;;4978901;28;20034;-90
2023/04/07 06:06:54;;;;;;;17.35;10.60;;;8.40;99.90;;;;;;4978428;28;20041;-90
2023/04/07 06:09:20;;;;;;;18.95;11.93;;;8.40;99.90;;;;;;4991573;28;20048;-90
2023/04/07 06:11:46;;;;;;;18.45;11.80;;;8.50;99.90;;;;;;4992214;28;20060;-90
2023/04/07 06:14:11;;;;;;;16.70;10.15;;;8.50;99.90;;;;;;4962968;28;20500;-90
2023/04/07 06:16:37;;;;;;;18.98;11.63;;;8.50;99.90;;;;;;4959646;28;20053;-90
2023/04/07 06:19:03;;;;;;;17.17;11.23;;;8.50;99.90;;;;;;4968321;28;20041;-90
2023/04/07 06:21:29;;;;;;;18.83;12.30;;;8.50;99.90;;;;;;4978759;28;20034;-89
2023/04/07 06:23:55;;;;;;;18.58;11.35;;;8.50;99.90;;;;;;4995391;28;20042;-89
2023/04/07 06:26:20;;;;;;;18.35;11.93;;;8.50;99.90;;;;;;4987302;28;20483;-89
2023/04/07 06:28:46;;;;;;;17.63;10.85;;;8.50;99.90;;;;;;4995206;28;20147;-89
2023/04/07 06:31:12;;;;;;;18.63;11.73;;;8.60;99.90;;;;;;4994379;28;20676;-89
2023/04/07 06:33:37;;;;;;;19.20;12.50;;;8.60;99.90;;;;;;4993897;28;20037;-90
2023/04/07 06:36:03;;;;;;;21.38;12.45;;;8.60;99.90;;;;;;4995421;28;20044;-90
2023/04/07 06:38:29;;;;;;;19.55;12.70;;;8.60;99.90;;;;;;4978679;28;20038;-90
2023/04/07 06:40:55;;;;;;;18.55;12.77;;;8.70;99.90;;;;;;4994084;28;20034;-90
2023/04/07 06:43:20;;;;;;;17.98;11.68;;;8.70;99.90;;;;;;4994390;28;20137;-90
2023/04/07 06:45:46;;;;;;;19.85;11.63;;;8.70;99.90;;;;;;4981637;28;20100;-90
2023/04/07 06:48:11;;;;;;;17.77;11.18;;;8.70;99.90;;;;;;4974737;28;20397;-90
2023/04/07 06:50:37;;;;;;;20.77;12.13;;;8.80;99.90;;;;;;4964789;28;20038;-90
2023/04/07 06:53:03;;;;;;;19.92;12.20;;;8.80;99.90;;;;;;4975116;28;20046;-90
2023/04/07 06:55:29;;;;;;;19.05;12.07;;;8.80;99.90;;;;;;4991991;28;20118;-89
2023/04/07 06:57:55;;;;;;;17.70;11.27;;;8.80;99.90;;;;;;4992487;28;20164;-90
2023/04/07 07:00:21;;;;;;;17.83;12.20;;;8.80;99.90;;;;;;4979257;28;20061;-89
2023/04/07 07:02:48;;;;;;;17.30;11.13;;;8.80;99.90;;;;;;4971655;28;20042;-89
2023/04/07 07:05:14;;;;;;;17.13;10.63;;;8.90;99.90;;;;;;4991164;28;20043;-89
2023/04/07 07:07:39;;;;;;;19.10;12.35;;;8.90;99.90;;;;;;4969725;28;20053;-89
2023/04/07 07:10:08;;;;;;;17.98;11.40;;;8.90;99.90;;;;;;4978003;28;20030;-89
2023/04/07 07:12:33;;;;;;;18.85;11.48;;;8.90;99.90;;;;;;4993593;28;20545;-90
2023/04/07 07:14:59;;;;;;;18.33;12.02;;;9.00;99.90;;;;;;4976904;28;20042;-89
2023/04/07 07:17:24;;;;;;;17.38;10.98;;;9.00;99.90;;;;;;4958681;28;20030;-90
2023/04/07 07:19:50;;;;;;;17.63;12.05;;;9.00;99.90;;;;;;4968249;28;20038;-90
2023/04/07 07:22:16;;;;;;;16.13;10.38;;;9.00;99.90;;;;;;4983061;28;20033;-89
2023/04/07 07:24:41;;;;;;;16.13;10.63;;;9.00;99.90;;;;;;4993048;28;20112;-89
2023/04/07 07:27:07;;;;;;;15.40;9.65;;;9.10;99.90;;;;;;4967604;28;20034;-89
2023/04/07 07:29:33;;;;;;;16.35;10.88;;;9.10;99.90;;;;;;4966586;28;20066;-89
2023/04/07 07:31:59;;;;;;;16.38;10.00;;;9.10;99.90;;;;;;4968476;28;20113;-90
2023/04/07 07:34:25;;;;;;;16.48;10.00;;;9.20;99.90;;;;;;5035056;28;20458;-90
2023/04/07 07:36:50;;;;;;;17.08;10.15;;;9.20;99.90;;;;;;5011963;28;20050;-89
2023/04/07 07:39:16;;;;;;;17.63;10.77;;;9.20;99.90;;;;;;4974565;28;20833;-91
2023/04/07 07:41:42;;;;;;;16.00;9.75;;;9.30;99.90;;;;;;5001968;28;20048;-90
2023/04/07 07:44:07;;;;;;;17.50;10.63;;;9.30;99.90;;;;;;4977543;28;20042;-90
2023/04/07 07:46:33;;;;;;;18.20;10.85;;;9.40;99.90;;;;;;5000881;28;20048;-90
2023/04/07 07:48:58;;;;;;;17.10;10.27;;;9.40;99.90;;;;;;4976122;28;20073;-90
2023/04/07 07:51:24;;;;;;;15.27;9.95;;;9.50;99.90;;;;;;4960274;28;20549;-90
2023/04/07 07:53:51;;;;;;;15.75;9.25;;;9.60;99.90;;;;;;4999908;28;20116;-88
2023/04/07 07:56:17;;;;;;;15.60;10.18;;;9.60;99.90;;;;;;4974035;28;20095;-89
2023/04/07 07:58:42;;;;;;;17.83;11.35;;;9.60;99.90;;;;;;5002225;28;20041;-89
2023/04/07 08:01:08;;;;;;;14.63;10.65;;;9.60;99.90;;;;;;4967200;28;20040;-89
2023/04/07 08:03:34;;;;;;;16.15;11.40;;;9.70;99.90;;;;;;4966208;28;20389;-90
2023/04/07 08:06:00;;;;;;;16.20;11.52;;;9.70;99.90;;;;;;4999908;28;20472;-90
2023/04/07 08:08:25;;;;;;;16.40;11.05;;;9.70;99.90;;;;;;4973845;28;20499;-90
2023/04/07 08:10:51;;;;;;;16.08;11.05;;;9.70;99.90;;;;;;4964684;28;20417;-90
2023/04/07 08:13:16;;;;;;;16.85;11.75;;;9.70;99.90;;;;;;4995633;28;20033;-89
2023/04/07 08:15:42;;;;;;;18.00;12.10;;;9.70;99.90;;;;;;4985287;28;20395;-90
2023/04/07 08:18:08;;;;;;;17.63;11.27;;;9.80;99.90;;;;;;4993603;28;20615;-90
2023/04/07 08:20:33;;;;;;;18.73;12.65;;;9.80;99.90;;;;;;4992555;28;20042;-90
2023/04/07 08:23:00;;;;;;;17.33;12.38;;;9.80;99.90;;;;;;4970029;28;20129;-90
2023/04/07 08:25:27;;;;;;;18.75;12.05;;;9.90;99.90;;;;;;4984976;28;20076;-90
2023/04/07 08:27:53;;;;;;;19.10;13.00;;;9.80;99.90;;;;;;4981150;28;20034;-90
2023/04/07 08:30:20;;;;;;;16.52;11.75;;;9.90;99.90;;;;;;4999264;28;20120;-90
2023/04/07 08:32:46;;;;;;;16.83;12.43;;;9.90;99.90;;;;;;4997783;28;20038;-90
2023/04/07 08:35:12;;;;;;;20.10;12.55;;;9.80;99.90;;;;;;4983326;28;20289;-90
2023/04/07 08:37:40;;;;;;;18.45;12.63;;;9.90;99.90;;;;;;4975405;28;20038;-90
2023/04/07 08:40:06;;;;;;;17.33;12.25;;;9.90;99.90;;;;;;4992766;28;20415;-91
2023/04/07 08:42:33;;;;;;;19.13;12.98;;;9.90;99.90;;;;;;5012639;28;20038;-91
2023/04/07 08:45:06;;;;;;;17.80;12.43;;;9.90;99.90;;;;;;4994018;28;20038;-90
2023/04/07 08:47:35;;;;;;;18.73;12.52;;;9.90;99.90;;;;;;4994483;28;20041;-90
2023/04/07 08:50:06;;;;;;;17.02;12.02;;;9.90;99.90;;;;;;4998011;28;20045;-91
2023/04/07 08:52:36;;;;;;;21.67;14.40;;;9.90;99.90;;;;;;5013775;28;20042;-90
2023/04/07 08:55:05;;;;;;;22.85;16.25;;;9.90;99.90;;;;;;4979433;28;20069;-90
2023/04/07 08:57:32;;;;;;;21.98;15.20;;;9.90;99.90;;;;;;4966238;28;20041;-90
2023/04/07 09:00:05;;;;;;;21.90;15.82;;;9.90;99.90;;;;;;4960541;28;20045;-90
2023/04/07 09:02:44;;;;;;;21.40;15.93;;;9.90;99.90;;;;;;5009023;28;20080;-90
2023/04/07 09:05:13;;;;;;;21.60;15.40;;;9.90;99.90;;;;;;5012017;28;20048;-90
2023/04/07 09:07:39;;;;;;;22.20;16.30;;;10.00;99.90;;;;;;4979536;28;20125;-90
2023/04/07 09:10:06;;;;;;;23.15;16.92;;;10.00;99.90;;;;;;4979183;28;20092;-89
2023/04/07 09:12:32;;;;;;;22.52;16.35;;;10.00;99.90;;;;;;5013823;28;20049;-90
2023/04/07 09:14:58;;;;;;;22.10;15.68;;;10.10;99.90;;;;;;5012830;28;20056;-90
2023/04/07 09:17:26;;;;;;;20.42;14.65;;;10.10;99.90;;;;;;4996489;28;20495;-90
2023/04/07 09:19:55;;;;;;;21.50;16.00;;;10.10;99.90;;;;;;5004229;28;20046;-90
2023/04/07 09:22:41;;;;;;;20.60;14.93;;;10.20;99.90;;;;;;4996166;28;20132;-90
2023/04/07 09:25:14;;;;;;;19.23;14.70;;;10.20;99.90;;;;;;4975111;28;20041;-90
2023/04/07 09:27:41;;;;;;;19.00;13.38;;;10.30;99.90;;;;;;5003762;28;20053;-90
2023/04/07 09:30:14;;;;;;;17.98;12.43;;;10.30;99.90;;;;;;4984424;28;20042;-91
2023/04/07 09:32:40;;;;;;;14.48;9.15;;;10.40;99.90;;;;;;4985023;28;20049;-91
2023/04/07 09:35:07;;;;;;;10.63;6.65;;;10.40;99.90;;;;;;4970281;28;20036;-90
2023/04/07 09:37:33;;;;;;;11.35;6.10;;;10.40;99.90;;;;;;4970867;28;20029;-90
2023/04/07 09:40:00;;;;;;;9.90;5.93;;;10.40;99.90;;;;;;5003165;28;20144;-90
2023/04/07 09:42:31;;;;;;;10.30;5.18;;;10.40;99.90;;;;;;5003384;28;20045;-91
2023/04/07 09:44:57;;;;;;;9.15;5.05;;;10.40;99.90;;;;;;5000648;28;20034;-90
2023/04/07 09:47:30;;;;;;;9.85;5.57;;;10.50;99.90;;;;;;5002137;28;20037;-91
2023/04/07 09:49:58;;;;;;;11.65;5.95;;;10.50;99.90;;;;;;4969391;28;20034;-90
2023/04/07 09:52:53;;;;;;;11.13;5.85;;;10.50;99.90;;;;;;4997059;28;20154;-90
2023/04/07 09:55:21;;;;;;;11.05;7.10;;;10.60;99.90;;;;;;4970662;28;20538;-90
2023/04/07 09:57:49;;;;;;;12.18;7.22;;;10.60;99.90;;;;;;4995547;28;20443;-90
2023/04/07 10:00:15;;;;;;;12.60;7.93;;;10.70;99.90;;;;;;5012433;28;20044;-90
2023/04/07 10:02:42;;;;;;;12.13;6.97;;;10.70;99.90;;;;;;4978712;28;20038;-89
2023/04/07 10:05:08;;;;;;;12.38;6.85;;;10.80;99.90;;;;;;4992522;28;20496;-90
2023/04/07 10:07:35;;;;;;;10.05;5.53;;;10.80;99.90;;;;;;4978640;28;20362;-90
2023/04/07 10:10:01;;;;;;;9.57;5.03;;;10.80;99.90;;;;;;4978732;28;20041;-90
2023/04/07 10:12:30;;;;;;;9.68;5.13;;;10.90;99.90;;;;;;4977686;28;20487;-90
2023/04/07 10:14:56;;;;;;;9.77;5.53;;;10.90;99.90;;;;;;4976886;28;20034;-90
2023/04/07 10:17:23;;;;;;;8.70;4.63;;;11.00;99.90;;;;;;5010887;28;20046;-90
2023/04/07 10:19:50;;;;;;;9.38;4.70;;;11.00;99.90;;;;;;4971325;28;20053;-90
2023/04/07 10:22:17;;;;;;;9.27;4.47;;;11.10;99.90;;;;;;4959354;28;20045;-90
2023/04/07 10:24:55;;;;;;;9.73;4.82;;;11.20;99.90;;;;;;4980193;28;20119;-90
2023/04/07 10:27:35;;;;;;;9.70;5.18;;;11.40;99.90;;;;;;4976868;28;20042;-90
2023/04/07 10:30:04;;;;;;;9.27;4.53;;;11.50;99.90;;;;;;4979892;28;20053;-90
2023/04/07 10:32:30;;;;;;;8.98;4.70;;;11.70;99.90;;;;;;4980242;28;20030;-90
2023/04/07 10:34:57;;;;;;;8.77;4.82;;;11.70;99.90;;;;;;4992201;28;20041;-90
2023/04/07 10:37:24;;;;;;;9.27;5.22;;;11.80;99.90;;;;;;5002603;28;20504;-90
2023/04/07 10:40:11;;;;;;;8.90;4.57;;;11.80;99.90;;;;;;4965825;28;20471;-90
2023/04/07 10:42:37;;;;;;;9.60;5.05;;;11.70;99.90;;;;;;4982851;28;20058;-91
2023/04/07 10:45:04;;;;;;;9.95;5.80;;;11.60;99.90;;;;;;4958794;28;20070;-90
2023/04/07 10:47:30;;;;;;;9.90;5.78;;;11.50;99.90;;;;;;4974080;28;20078;-90
2023/04/07 10:50:19;;;;;;;9.85;6.03;;;11.40;99.90;;;;;;4998439;28;20045;-91
2023/04/07 10:52:47;;;;;;;10.50;6.10;;;11.40;99.90;;;;;;4976769;28;20042;-90
2023/04/07 10:55:37;;;;;;;9.25;5.25;;;11.30;99.90;;;;;;5011761;28;20129;-91
2023/04/07 10:58:15;;;;;;;9.85;5.10;;;11.30;99.90;;;;;;5011078;28;20450;-90
2023/04/07 11:01:02;;;;;;;9.68;5.65;;;11.20;99.90;;;;;;4961601;28;20042;-90
2023/04/07 11:03:52;;;;;;;10.20;5.22;;;11.20;99.90;;;;;;4991075;28;20715;-89
2023/04/07 11:06:18;;;;;;;9.10;4.60;;;11.20;99.90;;;;;;4973849;28;20050;-90
2023/04/07 11:08:46;;;;;;;8.82;4.75;;;11.10;99.90;;;;;;4939245;28;20047;-89
2023/04/07 11:11:14;;;;;;;9.70;4.97;;;11.10;99.90;;;;;;4954518;28;20041;-90
2023/04/07 11:13:43;;;;;;;9.60;5.03;;;11.00;99.90;;;;;;4990163;28;20035;-89
2023/04/07 11:16:10;;;;;;;10.05;5.30;;;11.10;99.90;;;;;;4955253;28;20039;-89
2023/04/07 11:18:36;;;;;;;9.98;5.55;;;11.00;99.90;;;;;;4997106;28;20503;-89
2023/04/07 11:21:04;;;;;;;9.73;5.82;;;11.10;99.90;;;;;;4958299;28;20042;-89
2023/04/07 11:23:37;;;;;;;10.68;6.07;;;11.10;99.90;;;;;;4977815;28;20078;-90
2023/04/07 11:26:03;;;;;;;10.50;6.25;;;11.10;99.90;;;;;;4982726;28;20415;-90
2023/04/07 11:28:30;;;;;;;9.77;5.47;;;11.10;99.90;;;;;;4980041;28;20051;-90
2023/04/07 11:30:57;;;;;;;10.95;6.18;;;11.20;99.90;;;;;;5001358;28;20034;-89
2023/04/07 11:33:26;;;;;;;10.15;5.88;;;11.20;99.90;;;;;;5011240;28;20412;-89
2023/04/07 11:35:59;;;;;;;10.32;5.95;;;11.20;99.90;;;;;;4977523;28;20413;-89
2023/04/07 11:38:27;;;;;;;9.73;5.65;;;11.30;99.90;;;;;;4965421;28;20125;-89
2023/04/07 11:40:53;;;;;;;9.93;5.70;;;11.30;99.90;;;;;;5006047;28;20137;-89
2023/04/07 11:43:25;;;;;;;11.98;6.38;;;11.20;99.90;;;;;;4964826;28;20049;-89
2023/04/07 11:46:10;;;;;;;10.35;5.72;;;11.20;99.90;;;;;;4958165;28;20046;-92
2023/04/07 11:48:38;;;;;;;10.43;6.28;;;11.20;99.90;;;;;;4958192;28;20105;-89
2023/04/07 11:51:05;;;;;;;11.52;6.80;;;11.20;99.90;;;;;;4965096;28;20042;-90
2023/04/07 11:53:36;;;;;;;10.95;6.38;;;11.10;99.90;;;;;;4958262;28;20038;-90
2023/04/07 11:56:22;;;;;;;10.27;5.27;;;11.10;99.90;;;;;;5006659;28;20038;-89
2023/04/07 11:58:49;;;;;;;10.82;5.65;;;11.10;99.90;;;;;;4959380;28;20057;-90
2023/04/07 12:01:14;;;;;;;11.15;5.97;;;11.00;99.90;;;;;;4938276;28;20043;-89
2023/04/07 12:03:56;;;;;;;10.13;6.10;;;11.00;99.90;;;;;;4973968;28;20048;-90
2023/04/07 12:06:37;;;;;;;10.60;5.60;;;11.00;99.90;;;;;;4993696;28;20053;-90
2023/04/07 12:09:07;;;;;;;11.07;6.28;;;11.00;99.90;;;;;;4976419;28;20033;-90
2023/04/07 12:11:35;;;;;;;10.32;5.47;;;11.00;99.90;;;;;;4975840;28;20132;-89
2023/04/07 12:14:03;;;;;;;10.52;5.93;;;11.00;99.90;;;;;;5010737;28;20109;-89
2023/04/07 12:16:29;;;;;;;9.93;5.60;;;11.00;99.90;;;;;;4974439;28;20038;-90
2023/04/07 12:18:56;;;;;;;10.13;5.65;;;11.00;99.90;;;;;;4990193;28;20038;-90
2023/04/07 12:21:24;;;;;;;11.18;6.50;;;11.00;99.90;;;;;;4957559;28;20069;-90
2023/04/07 12:23:50;;;;;;;11.93;6.85;;;11.00;99.90;;;;;;4989562;28;20093;-89
2023/04/07 12:26:16;;;;;;;11.20;5.82;;;11.00;99.90;;;;;;4973830;28;20550;-89
2023/04/07 12:28:42;;;;;;;10.20;6.00;;;11.10;99.90;;;;;;4962578;28;20099;-89
2023/04/07 12:31:07;;;;;;;10.75;5.97;;;11.00;99.90;;;;;;4976804;28;20065;-90
2023/04/07 12:33:33;;;;;;;11.18;5.50;;;11.10;99.90;;;;;;4993245;28;20545;-90
2023/04/07 12:35:58;;;;;;;10.80;6.32;;;11.10;99.90;;;;;;4976269;28;20037;-90
2023/04/07 12:38:24;;;;;;;12.10;6.15;;;11.10;99.90;;;;;;4977515;28;20077;-90
2023/04/07 12:40:50;;;;;;;12.30;5.88;;;11.20;99.90;;;;;;4976671;28;20060;-90